Time;durP1;ratioP1;P1;durP2;ratioP2;P2;SDS_P1;SDS_P2;PMS_P1;PMS_P2;Temp;Humidity;BMP_temperature;BMP_pressure;BME280_temperature;BME280_humidity;BME280_pressure;Samples;Min_cycle;Max_cycle;Signal;HPM_P1;HPM_P2
2023/09/12 07:28:30;;;;;;;;;;;;;;;22.32;77.71;100505.37;1809392;79;20158;-68
2023/09/12 07:30:57;;;;;;;;;;;;;;;22.58;78.00;100504.95;1813795;79;20161;-68
2023/09/12 07:33:24;;;;;;;;;;;;;;;22.87;76.35;100510.03;1807186;79;20158;-70
2023/09/12 07:35:56;;;;;;;;;;;;;;;23.04;74.49;100506.53;1809516;79;20145;-71
2023/09/12 07:38:24;;;;;;;;;;;;;;;23.14;73.33;100504.62;1810161;79;20157;-67
2023/09/12 07:40:51;;;;;;;;;;;;;;;23.23;71.40;100510.80;1803665;79;20185;-66
2023/09/12 07:43:18;;;;;;;;;;;;;;;23.31;69.65;100510.02;1802355;80;20413;-69
2023/09/12 07:45:44;;;;;;;;;;;;;;;23.36;68.90;100506.41;1799775;77;20124;-67
2023/09/12 07:48:11;;;;;;;;;;;;;;;23.43;68.40;100508.28;1798721;79;20112;-69
2023/09/12 07:50:38;;;;;;;;;;;;;;;23.50;66.96;100510.66;1836995;78;20099;-67
2023/09/12 07:53:05;;;;;;;;;;;;;;;23.67;66.72;100508.09;1808005;77;20391;-71
2023/09/12 07:55:36;;;;;;;;;;;;;;;23.83;66.04;100510.34;1805337;79;20436;-70
2023/09/12 08:18:26;;;;;;;;;;;;;;;23.93;62.64;100511.55;1782899;79;20181;-70
2023/09/12 08:20:55;;;;;;;;;;;;;;;23.84;61.74;100510.67;1801679;79;20124;-68
2023/09/12 08:23:21;;;;;;;;;;;;;;;23.79;61.73;100510.31;1812058;78;20136;-69
2023/09/12 08:25:48;;;;;;;;;;;;;;;23.77;62.07;100508.31;1809966;79;20095;-69
2023/09/12 08:28:15;;;;;;;;;;;;;;;23.84;62.46;100500.53;1793501;79;20197;-72
2023/09/12 08:33:11;;;;;;;;;;;;;;;23.96;60.03;100501.91;1794606;79;20181;-70
2023/09/12 08:35:38;;;;;;;;;;;;;;;24.02;59.88;100507.06;1795505;79;20154;-70
2023/09/12 09:15:33;;;;;;;;;;;;;;;23.15;54.43;100506.78;1789158;79;20494;-70
2023/09/12 09:18:04;;;;;;;;;;;;;;;23.09;53.87;100500.76;1796413;79;20150;-69
2023/09/12 09:25:40;;;;;;;;;;;;;;;22.86;53.80;100504.38;1804533;79;20106;-67
2023/09/12 09:28:05;;;;;;;;;;;;;;;22.79;53.75;100508.14;1807389;79;20114;-69
2023/09/12 09:30:42;;;;;;;;;;;;;;;22.66;54.07;100511.67;1802199;79;20104;-68
2023/09/12 09:33:09;;;;;;;;;;;;;;;22.53;54.22;100510.71;1809933;79;20405;-74
2023/09/12 09:35:36;;;;;;;;;;;;;;;22.41;54.71;100499.13;1805991;79;20157;-69
2023/09/12 09:38:05;;;;;;;;;;;;;;;22.35;54.72;100494.45;1800614;79;20106;-69
2023/09/12 09:40:33;;;;;;;;;;;;;;;22.32;54.64;100503.55;1805283;79;20124;-69
2023/09/12 09:43:01;;;;;;;;;;;;;;;22.32;54.08;100502.22;1804646;79;20107;-68
2023/09/12 09:45:30;;;;;;;;;;;;;;;22.34;53.97;100494.95;1810778;79;20385;-68
2023/09/12 09:58:07;;;;;;;;;;;;;;;22.25;54.33;100500.66;1802978;77;20420;-70
2023/09/12 10:00:36;;;;;;;;;;;;;;;22.26;54.79;100498.34;1799871;79;20107;-68
2023/09/12 10:05:40;;;;;;;;;;;;;;;22.25;54.09;100497.17;1794838;79;20147;-69
2023/09/12 10:08:10;;;;;;;;;;;;;;;22.22;54.34;100500.12;1803470;79;20138;-70
2023/09/12 10:18:09;;;;;;;;;;;;;;;22.06;53.69;100483.52;1811796;79;20406;-69
2023/09/12 10:20:54;;;;;;;;;;;;;;;22.05;54.11;100479.69;1806972;79;20143;-69
2023/09/12 10:23:41;;;;;;;;;;;;;;;22.06;54.10;100480.87;1803557;79;20114;-70
2023/09/12 10:26:12;;;;;;;;;;;;;;;22.05;53.75;100474.39;1803519;79;20134;-69
2023/09/12 10:28:40;;;;;;;;;;;;;;;22.02;53.72;100470.22;1788583;80;20094;-70
2023/09/12 10:31:07;;;;;;;;;;;;;;;22.00;53.82;100469.50;1789023;80;20129;-69
2023/09/12 10:43:50;;;;;;;;;;;;;;;22.13;54.20;100464.70;1795873;79;20122;-68
2023/09/12 10:46:17;;;;;;;;;;;;;;;22.15;53.67;100470.70;1789625;80;20094;-69
2023/09/12 10:48:43;;;;;;;;;;;;;;;22.17;53.40;100469.22;1809885;79;20123;-68
2023/09/12 10:51:10;;;;;;;;;;;;;;;22.18;52.82;100473.55;1815883;79;20370;-68
2023/09/12 10:53:37;;;;;;;;;;;;;;;22.18;52.60;100473.05;1805554;79;20448;-69
2023/09/12 10:56:19;;;;;;;;;;;;;;;22.16;52.78;100467.06;1807626;77;20104;-70
2023/09/12 11:09:34;;;;;;;;;;;;;;;22.21;52.84;100471.92;1792366;77;20106;-70
2023/09/12 11:12:10;;;;;;;;;;;;;;;22.24;52.63;100472.45;1800895;79;20135;-69
2023/09/12 11:24:52;;;;;;;;;;;;;;;22.29;52.08;100459.58;1780841;79;20181;-71
2023/09/12 11:27:21;;;;;;;;;;;;;;;22.31;51.66;100470.53;1799310;79;20155;-71
2023/09/12 11:29:49;;;;;;;;;;;;;;;22.32;51.24;100466.41;1797142;79;20137;-72
2023/09/12 11:32:33;;;;;;;;;;;;;;;22.32;50.99;100457.12;1798360;79;20182;-70
2023/09/12 11:34:59;;;;;;;;;;;;;;;22.32;50.68;100455.79;1806453;79;20080;-68
2023/09/12 11:37:29;;;;;;;;;;;;;;;22.32;50.83;100455.79;1808067;79;20139;-73
2023/09/12 11:39:57;;;;;;;;;;;;;;;22.31;50.66;100450.63;1807576;79;20127;-70
2023/09/12 12:17:44;;;;;;;;;;;;;;;22.45;53.00;100424.38;1792466;79;20566;-73
2023/09/12 12:20:12;;;;;;;;;;;;;;;22.44;53.91;100424.53;1787332;77;20177;-70
2023/09/12 12:22:39;;;;;;;;;;;;;;;22.42;54.62;100426.01;1801237;79;20155;-70
2023/09/12 12:25:09;;;;;;;;;;;;;;;22.41;54.63;100421.69;1794412;79;20091;-70
2023/09/12 12:27:39;;;;;;;;;;;;;;;22.42;55.01;100429.16;1782337;79;20372;-68
2023/09/12 12:30:09;;;;;;;;;;;;;;;22.41;55.18;100423.02;1790886;79;20189;-71
2023/09/12 12:32:38;;;;;;;;;;;;;;;22.41;54.84;100420.36;1797635;79;20132;-69
2023/09/12 12:35:07;;;;;;;;;;;;;;;22.40;54.67;100419.19;1811676;79;20124;-71
2023/09/12 12:37:34;;;;;;;;;;;;;;;22.39;54.58;100420.20;1818764;79;20192;-68
2023/09/12 12:40:00;;;;;;;;;;;;;;;22.39;54.93;100413.08;1818384;79;20134;-70
2023/09/12 12:42:35;;;;;;;;;;;;;;;22.37;55.00;100417.70;1819108;79;20155;-70
2023/09/12 12:45:02;;;;;;;;;;;;;;;22.37;54.61;100419.03;1835748;78;20413;-68
2023/09/12 12:47:31;;;;;;;;;;;;;;;22.37;54.84;100410.23;1802912;79;20104;-71
2023/09/12 12:52:31;;;;;;;;;;;;;;;22.36;54.94;100413.37;1805721;79;20135;-68
2023/09/12 12:55:11;;;;;;;;;;;;;;;22.37;54.66;100423.00;1819686;79;20111;-71
2023/09/12 12:57:38;;;;;;;;;;;;;;;22.35;53.96;100417.02;1826986;77;20147;-67
2023/09/12 13:30:32;;;;;;;;;;;;;;;22.23;57.44;100401.81;1798994;79;20130;-71
2023/09/12 13:32:59;;;;;;;;;;;;;;;22.23;57.11;100399.66;1796027;79;20151;-71
2023/09/12 13:35:26;;;;;;;;;;;;;;;22.23;56.83;100397.00;1795013;79;20160;-75
2023/09/12 13:37:52;;;;;;;;;;;;;;;22.21;57.01;100398.48;1805275;78;20997;-68
2023/09/12 13:40:19;;;;;;;;;;;;;;;22.21;57.21;100396.32;1799075;79;20140;-68
2023/09/12 13:42:46;;;;;;;;;;;;;;;22.21;57.32;100398.97;1791247;79;20114;-66
